Time;durP1;ratioP1;P1;durP2;ratioP2;P2;SDS_P1;SDS_P2;PMS_P1;PMS_P2;Temp;Humidity;BMP_temperature;BMP_pressure;BME280_temperature;BME280_humidity;BME280_pressure;Samples;Min_cycle;Max_cycle;Signal;HPM_P1;HPM_P2
2022/11/19 06:55:22;;;;;;;4.85;1.05;;;8.40;99.90;;;;;;5322353;23;20060;-76
2022/11/19 06:57:49;;;;;;;3.88;0.90;;;8.30;99.90;;;;;;4897600;29;20113;-76
2022/11/19 07:00:16;;;;;;;1.90;1.10;;;8.30;99.90;;;;;;4895136;29;20053;-77
2022/11/19 07:02:42;;;;;;;3.42;1.15;;;8.40;99.90;;;;;;4891478;29;20137;-76
2022/11/19 07:05:09;;;;;;;5.95;1.33;;;8.40;99.90;;;;;;4887700;29;20049;-75
2022/11/19 07:07:36;;;;;;;5.18;1.73;;;8.40;99.90;;;;;;4888683;29;20056;-77
2022/11/19 07:10:03;;;;;;;4.13;1.20;;;8.40;99.90;;;;;;4896355;29;20510;-77
2022/11/19 07:12:29;;;;;;;5.55;1.33;;;8.40;99.90;;;;;;4902943;29;20060;-76
2022/11/19 07:14:56;;;;;;;1.98;1.02;;;8.40;99.90;;;;;;4896920;29;20127;-77
2022/11/19 07:17:30;;;;;;;7.95;1.40;;;8.40;99.90;;;;;;4888464;29;20053;-77
2022/11/19 07:19:56;;;;;;;7.32;1.67;;;8.40;99.90;;;;;;4887972;29;20052;-77
2022/11/19 07:22:23;;;;;;;7.43;1.80;;;8.40;99.90;;;;;;4888262;29;20060;-76
2022/11/19 07:24:49;;;;;;;6.55;2.53;;;8.50;99.90;;;;;;4879829;29;20418;-77
2022/11/19 07:27:16;;;;;;;11.05;2.55;;;8.50;99.90;;;;;;4888017;29;20049;-76
2022/11/19 07:29:43;;;;;;;5.40;1.58;;;8.50;99.90;;;;;;4880352;29;20071;-76
2022/11/19 07:32:10;;;;;;;3.97;1.88;;;8.50;99.90;;;;;;4880438;29;20092;-77
2022/11/19 07:34:36;;;;;;;4.90;1.30;;;8.50;99.90;;;;;;4887528;29;20056;-77
2022/11/19 07:37:03;;;;;;;3.65;1.70;;;8.50;99.90;;;;;;4880557;29;20057;-76
2022/11/19 07:39:30;;;;;;;7.38;1.55;;;8.50;99.90;;;;;;4886761;29;20068;-77
2022/11/19 07:44:42;;;;;;;9.25;2.67;;;8.50;99.90;;;;;;4884775;29;20044;-78
2022/11/19 07:47:08;;;;;;;7.18;1.40;;;8.50;99.90;;;;;;4893513;29;20056;-77
2022/11/19 07:49:35;;;;;;;7.00;1.77;;;8.50;99.90;;;;;;4889538;29;20049;-77
2022/11/19 07:52:02;;;;;;;7.25;1.60;;;8.40;99.90;;;;;;4890027;29;20067;-78
2022/11/19 07:54:28;;;;;;;6.40;1.65;;;8.30;99.90;;;;;;4894712;29;20429;-77
2022/11/19 07:56:55;;;;;;;7.05;1.90;;;8.30;99.90;;;;;;4892789;29;20052;-77
2022/11/19 07:59:22;;;;;;;3.45;1.90;;;8.40;99.90;;;;;;4884467;29;20048;-78
2022/11/19 08:01:49;;;;;;;12.10;2.45;;;8.40;99.90;;;;;;4893428;29;20055;-78
2022/11/19 08:04:15;;;;;;;6.10;1.95;;;8.40;99.90;;;;;;4892367;29;20055;-76
2022/11/19 08:06:42;;;;;;;5.18;1.50;;;8.40;99.90;;;;;;4889036;29;20064;-76
2022/11/19 08:09:09;;;;;;;7.95;2.90;;;8.50;99.90;;;;;;4888882;29;20116;-78
2022/11/19 08:11:35;;;;;;;7.93;2.35;;;8.50;99.90;;;;;;4895851;29;20060;-77
2022/11/19 08:14:02;;;;;;;6.82;1.70;;;8.50;99.90;;;;;;4888435;29;20063;-76
2022/11/19 08:19:17;;;;;;;4.32;2.10;;;8.50;99.90;;;;;;4891835;29;20049;-77
2022/11/19 08:21:46;;;;;;;8.82;2.40;;;8.50;99.90;;;;;;4888624;29;20049;-77
2022/11/19 08:24:14;;;;;;;6.93;1.50;;;8.50;99.90;;;;;;4883431;29;20052;-77
2022/11/19 08:26:41;;;;;;;10.75;2.00;;;8.50;99.90;;;;;;4889165;29;20041;-78
2022/11/19 08:29:08;;;;;;;5.78;1.67;;;8.40;99.90;;;;;;4891025;29;20049;-79
2022/11/19 08:31:43;;;;;;;7.97;1.88;;;8.40;99.90;;;;;;4888942;29;20568;-77
2022/11/19 08:34:10;;;;;;;8.20;2.17;;;8.40;99.90;;;;;;4887636;29;20049;-78
2022/11/19 08:36:37;;;;;;;7.28;2.70;;;8.40;99.90;;;;;;4889720;29;20610;-79
2022/11/19 08:39:05;;;;;;;3.97;2.72;;;8.40;99.90;;;;;;4890014;29;20056;-77
2022/11/19 08:44:17;;;;;;;9.23;1.67;;;8.40;99.90;;;;;;4893886;29;20418;-78
2022/11/19 08:46:44;;;;;;;9.10;2.20;;;8.40;99.90;;;;;;4889266;29;20566;-79
2022/11/19 08:49:12;;;;;;;7.35;2.00;;;8.40;99.90;;;;;;4894446;29;20075;-78
2022/11/19 08:51:38;;;;;;;10.73;2.10;;;8.50;99.90;;;;;;4890701;29;20063;-76
2022/11/19 08:54:05;;;;;;;8.30;1.90;;;8.60;99.90;;;;;;4892411;29;20052;-78
2022/11/19 08:56:32;;;;;;;5.35;1.83;;;8.70;99.90;;;;;;4890249;29;20052;-78
2022/11/19 08:58:58;;;;;;;4.97;1.73;;;8.70;99.90;;;;;;4888087;29;20112;-77
2022/11/19 09:01:29;;;;;;;5.75;1.63;;;8.80;99.90;;;;;;4889699;29;20151;-77
2022/11/19 09:03:56;;;;;;;7.95;2.40;;;8.80;99.90;;;;;;4889033;29;20505;-78
2022/11/19 09:06:23;;;;;;;9.95;2.60;;;8.90;99.90;;;;;;4893228;29;20561;-78
2022/11/19 09:08:49;;;;;;;6.25;2.10;;;8.80;99.90;;;;;;4891520;29;20492;-76
2022/11/19 09:11:19;;;;;;;10.27;2.75;;;8.80;99.90;;;;;;4893130;29;20059;-76
2022/11/19 09:13:45;;;;;;;7.72;1.90;;;8.80;99.90;;;;;;4897222;29;20044;-78
2022/11/19 09:16:12;;;;;;;6.38;2.20;;;8.90;99.90;;;;;;4888346;29;20048;-76
2022/11/19 09:18:40;;;;;;;11.20;2.00;;;8.90;99.90;;;;;;4893687;29;20048;-77
2022/11/19 09:21:09;;;;;;;8.20;1.90;;;9.00;99.90;;;;;;4890221;29;20049;-75
2022/11/19 09:23:36;;;;;;;9.18;3.33;;;9.10;99.90;;;;;;4887822;29;20049;-78
2022/11/19 09:26:06;;;;;;;8.43;2.83;;;9.10;99.90;;;;;;4889628;29;20052;-78
2022/11/19 09:28:33;;;;;;;9.73;2.80;;;9.30;99.90;;;;;;4893047;29;20052;-77
2022/11/19 09:31:10;;;;;;;14.43;2.35;;;9.30;99.90;;;;;;4890772;29;20053;-76
2022/11/19 09:33:41;;;;;;;8.68;2.30;;;9.40;99.90;;;;;;4891349;29;20598;-77
2022/11/19 09:36:08;;;;;;;;;;;9.50;99.90;;;;;;4891680;29;20438;-79
2022/11/19 09:38:35;;;;;;;5.72;2.33;;;9.60;99.90;;;;;;4887808;29;19930;-77
2022/11/19 09:41:17;;;;;;;4.60;1.83;;;9.70;99.90;;;;;;4888506;29;20049;-78
2022/11/19 09:43:55;;;;;;;8.68;2.03;;;9.70;99.90;;;;;;4890485;29;20049;-78
2022/11/19 09:46:37;;;;;;;7.75;2.00;;;9.70;99.90;;;;;;4889656;29;20045;-79
2022/11/19 09:49:10;;;;;;;11.15;2.28;;;9.80;99.90;;;;;;4885588;29;20053;-78
2022/11/19 09:51:39;;;;;;;9.25;2.80;;;9.90;99.90;;;;;;4892277;29;20139;-79
2022/11/19 09:54:18;;;;;;;8.60;2.40;;;9.90;99.90;;;;;;4890874;29;20060;-77
2022/11/19 09:56:46;;;;;;;8.50;2.45;;;10.00;99.90;;;;;;4889499;29;20116;-78
2022/11/19 09:59:27;;;;;;;7.22;2.38;;;10.00;99.90;;;;;;4889179;29;20056;-78
2022/11/19 10:01:54;;;;;;;;;;;10.00;99.90;;;;;;4893331;29;20048;-78
2022/11/19 10:04:26;;;;;;;5.70;2.25;;;10.10;99.90;;;;;;4889810;29;19924;-79
2022/11/19 10:07:05;;;;;;;7.20;2.47;;;10.10;99.90;;;;;;4902611;29;20566;-79
2022/11/19 10:09:49;;;;;;;6.38;2.05;;;10.20;99.90;;;;;;4897343;29;20108;-78
2022/11/19 10:12:21;;;;;;;9.00;2.20;;;10.20;99.90;;;;;;4890830;29;20059;-78
2022/11/19 10:15:05;;;;;;;8.57;2.33;;;10.20;99.90;;;;;;4896717;29;20059;-79
2022/11/19 10:18:07;;;;;;;9.45;1.88;;;10.30;99.90;;;;;;4896854;29;20511;-78
2022/11/19 10:20:54;;;;;;;5.65;1.75;;;10.30;99.90;;;;;;4892185;29;20060;-80
2022/11/19 10:23:33;;;;;;;8.65;2.33;;;10.30;99.90;;;;;;4897056;29;20059;-79
2022/11/19 10:26:05;;;;;;;6.38;2.10;;;10.40;99.90;;;;;;4897784;29;20056;-79
2022/11/19 10:28:37;;;;;;;6.25;2.03;;;10.40;99.90;;;;;;4892852;29;20053;-79
2022/11/19 10:31:13;;;;;;;6.50;2.38;;;10.50;99.90;;;;;;4897592;29;20063;-80
2022/11/19 10:34:03;;;;;;;8.75;3.05;;;10.50;99.90;;;;;;4901614;29;20115;-80
2022/11/19 10:36:44;;;;;;;10.50;2.28;;;10.60;99.90;;;;;;4899023;29;20053;-80
2022/11/19 10:39:21;;;;;;;5.75;2.40;;;10.60;99.90;;;;;;4895520;29;20176;-81
2022/11/19 10:42:17;;;;;;;7.13;2.80;;;10.70;99.90;;;;;;4893015;29;20041;-78
2022/11/19 10:44:58;;;;;;;7.00;2.15;;;10.70;99.90;;;;;;4889118;29;20053;-80
2022/11/19 10:47:30;;;;;;;;;;;10.70;99.90;;;;;;4901048;29;20059;-79
2022/11/19 10:49:56;;;;;;;7.97;2.00;;;10.70;99.90;;;;;;4897773;29;19923;-78
2022/11/19 10:52:32;;;;;;;4.25;2.20;;;10.60;99.90;;;;;;4895184;29;20053;-78
2022/11/19 10:55:11;;;;;;;5.28;1.80;;;10.70;99.90;;;;;;4899697;29;20052;-80
2022/11/19 10:57:38;;;;;;;4.53;1.88;;;10.70;99.90;;;;;;4901527;29;20408;-81
2022/11/19 11:00:05;;;;;;;7.35;1.95;;;10.80;99.90;;;;;;4896051;29;20066;-80
2022/11/19 11:02:43;;;;;;;9.07;2.72;;;10.80;99.90;;;;;;4899832;29;20052;-81
2022/11/19 11:05:14;;;;;;;6.68;2.42;;;10.90;99.90;;;;;;4898706;29;20063;-80
2022/11/19 11:07:51;;;;;;;7.65;2.03;;;10.90;99.90;;;;;;4900197;29;20048;-80
2022/11/19 11:10:30;;;;;;;4.32;1.50;;;11.00;99.90;;;;;;4898569;29;20055;-79
2022/11/19 11:15:51;;;;;;;5.40;2.45;;;11.10;99.90;;;;;;4895081;29;20053;-80
2022/11/19 11:18:23;;;;;;;5.55;2.08;;;11.10;99.90;;;;;;4897793;29;20056;-80
2022/11/19 11:20:51;;;;;;;6.75;2.20;;;11.10;99.90;;;;;;4897269;29;20049;-80
2022/11/19 11:23:22;;;;;;;6.18;2.17;;;11.20;99.90;;;;;;4894167;29;20045;-80
2022/11/19 11:26:04;;;;;;;8.30;2.47;;;11.20;99.90;;;;;;4896408;29;20570;-81
2022/11/19 11:28:31;;;;;;;7.32;2.42;;;11.30;99.90;;;;;;4904290;29;20067;-79
2022/11/19 11:31:04;;;;;;;7.07;2.30;;;11.30;99.90;;;;;;4897679;29;20059;-80
2022/11/19 11:33:32;;;;;;;6.35;2.90;;;11.30;99.90;;;;;;4895556;29;20049;-79
2022/11/19 11:36:11;;;;;;;8.18;2.03;;;11.30;99.90;;;;;;4894581;29;20044;-79
2022/11/19 11:38:45;;;;;;;5.93;1.98;;;11.30;99.90;;;;;;4898326;29;20049;-79
2022/11/19 11:41:17;;;;;;;6.13;1.83;;;11.30;99.90;;;;;;4895268;29;20391;-80
2022/11/19 11:44:17;;;;;;;6.60;2.20;;;11.30;99.90;;;;;;4899160;29;20187;-80
2022/11/19 11:46:52;;;;;;;6.55;2.10;;;11.40;99.90;;;;;;4900478;29;20057;-80
2022/11/19 11:49:26;;;;;;;5.38;1.80;;;11.40;99.90;;;;;;4900890;29;20049;-78
2022/11/19 11:52:02;;;;;;;9.10;2.60;;;11.40;99.90;;;;;;4891650;29;20055;-80
2022/11/19 11:54:29;;;;;;;10.93;2.50;;;11.30;99.90;;;;;;4898895;29;20060;-81
2022/11/19 11:57:14;;;;;;;7.68;2.53;;;11.40;99.90;;;;;;4897752;29;20059;-80
2022/11/19 11:59:41;;;;;;;5.75;1.95;;;11.40;99.90;;;;;;4895866;29;20052;-80
2022/11/19 12:02:25;;;;;;;6.03;2.40;;;11.30;99.90;;;;;;4900020;29;20128;-79
2022/11/19 12:04:54;;;;;;;5.10;1.70;;;11.30;99.90;;;;;;4898690;29;20136;-79
2022/11/19 12:07:38;;;;;;;8.02;2.13;;;11.40;99.90;;;;;;4894910;29;20059;-79
2022/11/19 12:10:40;;;;;;;5.82;1.83;;;11.40;99.90;;;;;;4893017;29;20053;-79
2022/11/19 12:13:09;;;;;;;5.78;1.80;;;11.40;99.90;;;;;;4899891;29;20049;-79
2022/11/19 12:15:47;;;;;;;5.30;2.25;;;11.40;99.90;;;;;;4893905;29;20048;-81
2022/11/19 12:18:29;;;;;;;6.40;1.70;;;11.40;99.90;;;;;;4900678;29;20059;-81
2022/11/19 12:21:10;;;;;;;6.15;1.77;;;11.30;99.90;;;;;;4898002;29;20063;-82
2022/11/19 12:23:49;;;;;;;10.80;2.28;;;11.30;99.90;;;;;;4897025;29;20048;-81
2022/11/19 12:26:16;;;;;;;6.22;1.80;;;11.30;99.90;;;;;;4896343;29;20052;-82
2022/11/19 12:29:05;;;;;;;7.85;2.15;;;11.40;99.90;;;;;;4896928;29;20052;-80
2022/11/19 12:31:50;;;;;;;5.20;2.03;;;11.40;99.90;;;;;;4895113;29;20057;-79
2022/11/19 12:34:34;;;;;;;6.07;1.75;;;11.40;99.90;;;;;;4893687;29;20438;-81
2022/11/19 12:37:36;;;;;;;4.13;1.60;;;11.40;99.90;;;;;;4894755;29;20546;-81
2022/11/19 12:40:31;;;;;;;4.70;1.70;;;11.40;99.90;;;;;;4896970;29;20063;-81
2022/11/19 12:43:36;;;;;;;5.78;1.83;;;11.50;99.90;;;;;;4894110;29;20077;-81
2022/11/19 12:46:12;;;;;;;4.57;1.85;;;11.50;99.90;;;;;;4900124;29;20056;-81
2022/11/19 12:49:02;;;;;;;5.60;1.65;;;11.50;99.90;;;;;;4894720;29;20053;-79
2022/11/19 12:51:34;;;;;;;4.70;1.75;;;11.50;99.90;;;;;;4898186;29;20048;-79
2022/11/19 12:54:25;;;;;;;3.17;1.60;;;11.40;99.90;;;;;;4894273;29;20052;-81
2022/11/19 12:57:31;;;;;;;5.40;1.50;;;11.40;99.90;;;;;;4895054;29;20077;-79
2022/11/19 13:00:04;;;;;;;6.85;1.70;;;11.30;99.90;;;;;;4894880;29;20053;-81
2022/11/19 13:02:53;;;;;;;7.75;2.22;;;11.30;99.90;;;;;;4893503;29;20060;-81
2022/11/19 13:05:23;;;;;;;7.82;2.88;;;11.30;99.90;;;;;;4894643;29;20068;-82
2022/11/19 13:08:00;;;;;;;10.65;3.15;;;11.30;99.90;;;;;;4894413;29;20057;-81
2022/11/19 13:10:37;;;;;;;9.55;1.98;;;11.30;99.90;;;;;;4884773;29;20061;-80
2022/11/19 13:13:07;;;;;;;3.30;1.63;;;11.30;99.90;;;;;;4883722;29;20052;-81
2022/11/19 13:15:43;;;;;;;4.70;1.45;;;11.30;99.90;;;;;;4889487;29;20091;-81
2022/11/19 13:18:15;;;;;;;7.50;2.22;;;11.30;99.90;;;;;;4893882;29;20515;-81
2022/11/19 13:21:02;;;;;;;2.90;1.50;;;11.30;99.90;;;;;;4895445;29;20053;-80
2022/11/19 13:23:36;;;;;;;3.45;1.52;;;11.30;99.90;;;;;;4894097;29;20057;-81
2022/11/19 13:26:29;;;;;;;4.38;1.50;;;11.30;99.90;;;;;;4892065;29;20053;-80
2022/11/19 13:29:18;;;;;;;4.90;1.70;;;11.30;99.90;;;;;;4894562;29;20060;-81
2022/11/19 13:31:56;;;;;;;3.97;2.28;;;11.40;99.90;;;;;;4893847;29;20499;-80
2022/11/19 13:34:35;;;;;;;7.90;2.08;;;11.40;99.90;;;;;;4891253;29;20061;-81
2022/11/19 13:37:21;;;;;;;4.50;1.50;;;11.40;99.90;;;;;;4894146;29;20073;-81
2022/11/19 13:40:08;;;;;;;6.63;1.80;;;11.40;99.90;;;;;;4890134;29;20064;-79
2022/11/19 13:45:44;;;;;;;5.70;2.08;;;11.40;99.90;;;;;;4897646;29;20077;-81
2022/11/19 13:48:28;;;;;;;6.40;1.95;;;11.40;99.90;;;;;;4890914;29;20049;-81
2022/11/19 13:51:00;;;;;;;6.90;1.67;;;11.40;99.90;;;;;;4893207;29;20550;-81
2022/11/19 13:53:37;;;;;;;6.35;1.83;;;11.40;99.90;;;;;;4894710;29;20073;-81
2022/11/19 13:56:11;;;;;;;8.45;2.10;;;11.40;99.90;;;;;;4892850;29;20398;-79
2022/11/19 13:58:53;;;;;;;10.38;2.75;;;11.30;99.90;;;;;;4893830;29;20120;-80
2022/11/19 14:01:44;;;;;;;8.40;2.58;;;11.30;99.90;;;;;;4894357;29;20056;-81
2022/11/19 14:04:22;;;;;;;6.65;2.47;;;11.30;99.90;;;;;;4894137;29;20165;-81
2022/11/19 14:06:55;;;;;;;7.50;1.90;;;11.30;99.90;;;;;;4891601;29;20045;-81
2022/11/19 14:09:34;;;;;;;4.95;1.98;;;11.20;99.90;;;;;;4895711;29;20506;-81
2022/11/19 14:12:39;;;;;;;5.28;2.20;;;11.20;99.90;;;;;;4900631;29;20064;-80
2022/11/19 14:27:25;;;;;;;2.50;1.17;;;10.70;99.90;;;;;;4896596;29;20055;-79
2022/11/19 14:29:55;;;;;;;4.97;1.95;;;10.20;99.90;;;;;;4897479;29;20064;-78
2022/11/19 14:32:54;;;;;;;1.10;0.90;;;10.00;99.90;;;;;;4897738;29;20055;-80
2022/11/19 14:35:30;;;;;;;0.45;0.43;;;9.80;99.90;;;;;;4907076;29;20061;-78
2022/11/19 14:38:32;;;;;;;1.80;1.10;;;9.40;99.90;;;;;;4894749;29;20052;-81
2022/11/19 14:41:07;;;;;;;1.98;0.88;;;9.10;99.90;;;;;;4896728;29;20053;-78
2022/11/19 14:44:09;;;;;;;1.70;0.75;;;9.10;99.90;;;;;;4892461;29;20045;-80
2022/11/19 14:46:43;;;;;;;3.83;0.77;;;9.10;99.90;;;;;;4889371;29;20092;-81
2022/11/19 14:49:37;;;;;;;3.20;0.88;;;8.90;99.90;;;;;;4889209;29;20052;-78
2022/11/19 14:52:38;;;;;;;4.55;1.20;;;8.70;99.90;;;;;;4890425;29;20059;-81
2022/11/19 14:55:19;;;;;;;3.28;1.50;;;8.60;99.90;;;;;;4893492;29;20613;-80
2022/11/19 14:58:16;;;;;;;1.77;0.90;;;8.60;99.90;;;;;;4906136;29;20057;-77
2022/11/19 15:00:43;;;;;;;1.20;0.90;;;8.40;99.90;;;;;;4891840;29;20053;-79
2022/11/19 15:03:21;;;;;;;2.42;1.00;;;8.40;99.90;;;;;;4896045;29;20059;-80
2022/11/19 15:05:48;;;;;;;2.38;1.00;;;8.30;99.90;;;;;;4900976;29;20048;-79
2022/11/19 15:08:17;;;;;;;2.30;1.05;;;8.30;99.90;;;;;;4892384;29;20056;-80
2022/11/19 15:11:10;;;;;;;2.45;1.10;;;8.30;99.90;;;;;;4893387;29;20057;-80
2022/11/19 15:13:39;;;;;;;1.73;1.00;;;8.30;99.90;;;;;;4892709;29;20052;-80
2022/11/19 15:16:25;;;;;;;2.67;1.13;;;8.30;99.90;;;;;;4890898;29;20048;-79
2022/11/19 15:19:19;;;;;;;2.60;1.67;;;8.30;99.90;;;;;;4891636;29;20135;-80
2022/11/19 15:22:07;;;;;;;4.78;1.83;;;8.30;99.90;;;;;;4891633;29;20055;-80
2022/11/19 15:24:56;;;;;;;4.80;1.75;;;8.30;99.90;;;;;;4890557;29;20053;-78
2022/11/19 15:27:56;;;;;;;5.03;2.08;;;8.40;99.90;;;;;;4898546;29;20053;-80
2022/11/19 15:30:51;;;;;;;5.18;2.20;;;8.40;99.90;;;;;;4893367;29;20053;-81
2022/11/19 15:33:55;;;;;;;3.53;1.73;;;8.30;99.90;;;;;;4894092;29;20079;-78
2022/11/19 15:36:32;;;;;;;2.05;1.40;;;8.40;99.90;;;;;;4899359;29;20057;-79
2022/11/19 15:39:14;;;;;;;2.88;1.60;;;8.40;99.90;;;;;;4891520;29;20056;-80
2022/11/19 15:41:59;;;;;;;3.70;1.95;;;8.40;99.90;;;;;;4890845;29;20063;-80
2022/11/19 15:44:52;;;;;;;3.85;1.50;;;8.50;99.90;;;;;;4892118;29;20053;-77
2022/11/19 15:47:30;;;;;;;1.60;1.23;;;8.50;99.90;;;;;;4891295;29;20052;-81
2022/11/19 15:49:57;;;;;;;5.47;3.17;;;8.50;99.90;;;;;;4893883;29;20510;-79
2022/11/19 15:52:30;;;;;;;11.23;5.93;;;8.50;99.90;;;;;;4890633;29;20053;-78
2022/11/19 15:55:11;;;;;;;6.13;4.32;;;8.50;99.90;;;;;;4882173;29;20476;-79
2022/11/19 15:57:42;;;;;;;4.70;3.60;;;8.60;99.90;;;;;;4882584;29;20049;-79
2022/11/19 16:00:16;;;;;;;3.10;1.90;;;8.60;99.90;;;;;;4888339;29;20057;-79
2022/11/19 16:02:45;;;;;;;2.85;2.17;;;8.60;99.90;;;;;;4886192;29;20057;-80
2022/11/19 16:05:38;;;;;;;1.43;1.30;;;8.60;99.90;;;;;;4892636;29;20419;-80
2022/11/19 16:08:10;;;;;;;3.08;2.45;;;8.60;99.90;;;;;;4891811;29;20051;-80
2022/11/19 16:10:44;;;;;;;2.45;2.08;;;8.60;99.90;;;;;;4893711;29;20047;-82
2022/11/19 16:19:05;;;;;;;5.38;1.67;;;8.60;99.90;;;;;;4891920;29;20510;-79
2022/11/19 16:21:36;;;;;;;2.90;1.80;;;8.60;99.90;;;;;;4894626;29;20057;-79
2022/11/19 16:26:58;;;;;;;2.85;1.58;;;8.60;99.90;;;;;;4892493;29;20487;-79
2022/11/19 16:29:25;;;;;;;2.88;1.58;;;8.60;99.90;;;;;;4894757;29;20471;-78
2022/11/19 16:31:56;;;;;;;2.38;1.75;;;8.60;99.90;;;;;;4892003;29;20050;-79
2022/11/19 16:34:25;;;;;;;3.00;1.98;;;8.60;99.90;;;;;;4893953;29;20057;-79
2022/11/19 16:36:53;;;;;;;1.85;1.48;;;8.60;99.90;;;;;;4896060;29;20044;-78
2022/11/19 16:39:26;;;;;;;2.08;1.30;;;8.70;99.90;;;;;;4894556;29;20060;-80
2022/11/19 16:45:13;;;;;;;3.53;1.98;;;8.60;99.90;;;;;;4888137;29;20072;-79
2022/11/19 16:47:51;;;;;;;3.58;1.67;;;8.50;99.90;;;;;;4893149;29;20067;-80
2022/11/19 16:50:31;;;;;;;1.98;1.27;;;8.50;99.90;;;;;;4894562;29;20056;-80
2022/11/19 16:53:00;;;;;;;2.15;1.55;;;8.50;99.90;;;;;;4890637;29;20055;-80
2022/11/19 16:55:27;;;;;;;4.88;2.95;;;8.60;99.90;;;;;;4890075;29;20065;-79
2022/11/19 16:58:03;;;;;;;8.25;4.85;;;8.60;99.90;;;;;;4890437;29;20051;-79
2022/11/19 17:00:34;;;;;;;5.68;3.17;;;8.70;99.90;;;;;;4888892;29;20048;-79
2022/11/19 17:03:26;;;;;;;6.82;3.63;;;8.70;99.90;;;;;;4888089;29;20045;-80
2022/11/19 17:05:54;;;;;;;5.82;4.13;;;8.60;99.90;;;;;;4890372;29;20048;-79
2022/11/19 17:08:22;;;;;;;6.45;3.20;;;8.70;99.90;;;;;;4887711;29;20048;-77
2022/11/19 17:12:16;;;;;;;7.82;3.60;;;8.70;99.90;;;;;;4893657;29;20457;-78
2022/11/19 17:13:55;;;;;;;2.92;1.95;;;8.70;99.90;;;;;;4886812;29;20127;-80
2022/11/19 17:16:23;;;;;;;2.67;1.65;;;8.70;99.90;;;;;;4888416;29;20057;-79
2022/11/19 17:18:49;;;;;;;2.97;1.55;;;8.80;99.90;;;;;;4889976;29;20053;-79
2022/11/19 17:21:29;;;;;;;3.50;1.90;;;8.80;99.90;;;;;;4884956;29;20060;-80
2022/11/19 17:23:56;;;;;;;1.70;1.60;;;8.80;99.90;;;;;;4888633;29;20053;-79
2022/11/19 17:26:26;;;;;;;1.85;1.45;;;8.80;99.90;;;;;;4889048;29;20060;-80
2022/11/19 17:29:18;;;;;;;1.88;1.75;;;8.80;99.90;;;;;;4886909;29;20136;-80
2022/11/19 17:31:47;;;;;;;2.63;1.58;;;8.80;99.90;;;;;;4889115;29;20113;-77
2022/11/19 17:34:31;;;;;;;2.15;1.75;;;8.80;99.90;;;;;;4887003;29;20049;-78
2022/11/19 17:36:58;;;;;;;3.97;1.70;;;8.80;99.90;;;;;;4890149;29;20049;-79
2022/11/19 17:39:25;;;;;;;3.17;1.98;;;8.80;99.90;;;;;;4888337;29;20053;-80
2022/11/19 17:44:39;;;;;;;12.43;7.28;;;8.80;99.90;;;;;;4886277;29;20049;-78
2022/11/19 17:47:11;;;;;;;11.65;7.13;;;8.80;99.90;;;;;;4889592;29;20056;-78
2022/11/19 17:49:47;;;;;;;10.02;5.90;;;8.70;99.90;;;;;;4888459;29;20059;-79
2022/11/19 17:52:26;;;;;;;11.85;5.70;;;8.70;99.90;;;;;;4887866;29;20052;-79
2022/11/19 17:54:55;;;;;;;9.82;6.30;;;8.80;99.90;;;;;;4893350;29;20503;-79
2022/11/19 17:57:22;;;;;;;15.02;9.35;;;8.80;99.90;;;;;;4888533;29;20057;-80
2022/11/19 17:59:49;;;;;;;14.45;8.75;;;8.80;99.90;;;;;;4889786;29;20143;-78
2022/11/19 18:02:18;;;;;;;13.13;9.07;;;8.80;99.90;;;;;;4886363;29;20049;-78
2022/11/19 18:04:46;;;;;;;10.00;7.18;;;8.80;99.90;;;;;;4886172;29;20053;-77
2022/11/19 18:07:13;;;;;;;5.30;3.80;;;8.70;99.90;;;;;;4889461;29;20494;-78
2022/11/19 18:09:40;;;;;;;3.83;2.60;;;8.70;99.90;;;;;;4886784;29;20109;-77
2022/11/19 18:12:13;;;;;;;2.85;1.77;;;8.50;99.90;;;;;;4897336;29;20392;-78
2022/11/19 18:14:40;;;;;;;2.45;1.75;;;8.40;99.90;;;;;;4891731;29;20056;-77
2022/11/19 18:17:10;;;;;;;3.25;1.55;;;8.40;99.90;;;;;;4889883;29;20053;-80
2022/11/19 18:19:37;;;;;;;3.65;1.73;;;8.40;99.90;;;;;;4887808;29;20055;-79
2022/11/19 18:22:03;;;;;;;3.33;2.03;;;8.40;99.90;;;;;;4887714;29;20072;-79
2022/11/19 18:24:30;;;;;;;2.60;1.83;;;8.40;99.90;;;;;;4887734;29;20507;-79
2022/11/19 18:26:57;;;;;;;5.65;2.63;;;8.40;99.90;;;;;;4886033;29;20053;-79
2022/11/19 18:29:23;;;;;;;4.57;2.78;;;8.40;99.90;;;;;;4907444;29;20048;-77
2022/11/19 18:31:52;;;;;;;7.07;2.83;;;8.40;99.90;;;;;;4896618;29;20056;-78
2022/11/19 18:34:21;;;;;;;4.53;2.67;;;8.30;99.90;;;;;;4892861;29;20082;-79
2022/11/19 18:36:49;;;;;;;4.82;2.90;;;8.30;99.90;;;;;;4892489;29;20049;-78
2022/11/19 18:39:16;;;;;;;7.68;3.60;;;8.20;99.90;;;;;;4892958;29;20057;-77
2022/11/19 18:41:42;;;;;;;9.35;3.63;;;8.30;99.90;;;;;;4893577;29;20068;-78
2022/11/19 18:44:32;;;;;;;4.75;3.30;;;8.30;99.90;;;;;;4891437;29;20044;-77
2022/11/19 18:47:05;;;;;;;5.22;3.72;;;8.20;99.90;;;;;;4896044;29;20434;-79
2022/11/19 18:49:34;;;;;;;5.57;3.47;;;8.20;99.90;;;;;;4891926;29;20053;-79
2022/11/19 18:52:03;;;;;;;7.47;3.95;;;8.20;99.90;;;;;;4890938;29;20418;-79
2022/11/19 18:54:30;;;;;;;6.80;4.50;;;8.20;99.90;;;;;;4892025;29;20064;-79
2022/11/19 18:56:57;;;;;;;5.47;3.97;;;8.20;99.90;;;;;;4890031;29;20087;-79
2022/11/19 18:59:24;;;;;;;7.93;4.13;;;8.20;99.90;;;;;;4891789;29;20510;-79
2022/11/19 19:01:51;;;;;;;5.47;3.65;;;8.20;99.90;;;;;;4890047;29;20431;-79
2022/11/19 19:04:18;;;;;;;7.40;3.47;;;8.20;99.90;;;;;;4899651;29;20480;-79
2022/11/19 19:06:45;;;;;;;7.47;4.30;;;8.20;99.90;;;;;;4893836;29;20085;-79
2022/11/19 19:09:17;;;;;;;6.38;3.90;;;8.20;99.90;;;;;;4889704;29;20063;-79
2022/11/19 19:14:38;;;;;;;8.75;5.22;;;8.20;99.90;;;;;;4893407;29;20056;-78
2022/11/19 19:17:05;;;;;;;9.07;5.10;;;8.20;99.90;;;;;;4891359;29;20537;-77
2022/11/19 19:19:31;;;;;;;5.90;4.47;;;8.30;99.90;;;;;;4894812;29;20060;-78
2022/11/19 19:21:59;;;;;;;7.13;4.88;;;8.30;99.90;;;;;;4904913;29;20059;-78
2022/11/19 19:24:26;;;;;;;7.18;4.95;;;8.30;99.90;;;;;;4890176;29;20045;-77
2022/11/19 19:26:52;;;;;;;7.13;5.05;;;8.30;99.90;;;;;;4891318;29;20057;-79
2022/11/19 19:29:19;;;;;;;7.93;4.80;;;8.20;99.90;;;;;;4889077;29;20049;-79
2022/11/19 19:31:47;;;;;;;10.10;5.55;;;8.10;99.90;;;;;;4891763;29;20258;-78
2022/11/19 19:34:13;;;;;;;9.68;5.20;;;8.10;99.90;;;;;;4888871;29;20056;-77
2022/11/19 19:36:42;;;;;;;7.63;4.95;;;8.10;99.90;;;;;;4891754;29;20099;-79
2022/11/19 19:39:15;;;;;;;8.52;5.75;;;8.10;99.90;;;;;;4901570;29;20061;-79
2022/11/19 19:41:42;;;;;;;10.07;5.72;;;8.10;99.90;;;;;;4894928;29;20084;-79
2022/11/19 19:44:09;;;;;;;11.13;5.85;;;8.10;99.90;;;;;;4890912;29;20059;-78
2022/11/19 19:46:36;;;;;;;10.68;5.35;;;8.10;99.90;;;;;;4888408;29;20053;-79
2022/11/19 19:49:03;;;;;;;12.35;5.80;;;8.10;99.90;;;;;;4891335;29;20060;-79
2022/11/19 19:51:31;;;;;;;12.40;5.63;;;8.10;99.90;;;;;;4888541;29;20049;-78
2022/11/19 19:53:58;;;;;;;7.32;5.72;;;8.10;99.90;;;;;;4890695;29;20094;-78
2022/11/19 19:56:30;;;;;;;9.50;5.15;;;8.00;99.90;;;;;;4892380;29;20056;-78
2022/11/19 19:58:58;;;;;;;8.35;5.57;;;8.10;99.90;;;;;;4891140;29;20056;-78
2022/11/19 20:01:29;;;;;;;8.45;5.75;;;8.00;99.90;;;;;;4889581;29;20057;-79
2022/11/19 20:04:01;;;;;;;10.88;5.72;;;8.00;99.90;;;;;;4889259;29;20049;-78
2022/11/19 20:06:28;;;;;;;7.32;4.68;;;8.00;99.90;;;;;;4891633;29;20049;-79
2022/11/19 20:08:55;;;;;;;11.52;5.03;;;8.00;99.90;;;;;;4888333;29;20056;-79
2022/11/19 20:11:23;;;;;;;8.65;4.90;;;8.00;99.90;;;;;;4891249;29;20067;-80
2022/11/19 20:13:52;;;;;;;11.75;5.22;;;8.00;99.90;;;;;;4894020;29;20053;-79
2022/11/19 20:16:24;;;;;;;8.63;4.97;;;8.10;99.90;;;;;;4890846;29;20495;-80
2022/11/19 20:18:52;;;;;;;8.52;4.65;;;8.10;99.90;;;;;;4888870;29;20059;-79
2022/11/19 20:21:24;;;;;;;9.75;4.25;;;8.10;99.90;;;;;;4888713;29;20403;-79
2022/11/19 20:23:50;;;;;;;9.02;5.90;;;8.10;99.90;;;;;;4890783;29;20529;-79
2022/11/19 20:26:20;;;;;;;9.43;5.45;;;8.10;99.90;;;;;;4888801;29;20053;-79
2022/11/19 20:28:47;;;;;;;6.30;3.75;;;8.20;99.90;;;;;;4893102;29;20399;-79
2022/11/19 20:31:17;;;;;;;8.32;3.83;;;8.10;99.90;;;;;;4901841;29;20049;-79
2022/11/19 20:33:45;;;;;;;8.07;4.03;;;8.20;99.90;;;;;;4890279;29;20053;-80
2022/11/19 20:36:15;;;;;;;7.50;4.30;;;8.20;99.90;;;;;;4890056;29;20052;-79
2022/11/19 20:38:44;;;;;;;6.55;4.70;;;8.10;99.90;;;;;;4890400;29;20061;-79
2022/11/19 20:47:02;;;;;;;6.20;4.22;;;8.00;99.90;;;;;;4888135;29;20052;-78
2022/11/19 20:49:35;;;;;;;7.85;4.15;;;8.00;99.90;;;;;;4901295;29;20055;-78
2022/11/19 20:52:02;;;;;;;6.00;4.13;;;8.10;99.90;;;;;;4890338;29;20063;-79
2022/11/19 20:54:30;;;;;;;10.68;4.20;;;8.10;99.90;;;;;;4887385;29;20107;-79
2022/11/19 20:56:57;;;;;;;8.85;4.43;;;8.20;99.90;;;;;;4889280;29;20057;-79
2022/11/19 20:59:25;;;;;;;6.50;4.00;;;8.20;99.90;;;;;;4887415;29;20055;-78
2022/11/19 21:01:53;;;;;;;6.43;4.32;;;8.20;99.90;;;;;;4890733;29;20057;-79
2022/11/19 21:04:21;;;;;;;8.70;4.20;;;8.20;99.90;;;;;;4891853;29;20044;-79
2022/11/19 21:06:52;;;;;;;10.85;4.18;;;8.20;99.90;;;;;;4891637;29;20059;-80
2022/11/19 21:09:19;;;;;;;7.00;4.43;;;8.20;99.90;;;;;;4889389;29;20060;-80
2022/11/19 21:11:46;;;;;;;6.25;4.13;;;8.10;99.90;;;;;;4890868;29;20486;-78